sensor_id;sensor_type;location;lat;lon;timestamp;P1;durP1;ratioP1;P2;durP2;ratioP2
65545;SDS011;52177;55.968;37.498;2023-07-09T00:00:30;23.15;;;14.50;;
65545;SDS011;52177;55.968;37.498;2023-07-09T00:01:00;20.10;;;14.40;;
65545;SDS011;52177;55.968;37.498;2023-07-09T00:01:30;17.55;;;13.90;;
65545;SDS011;52177;55.968;37.498;2023-07-09T00:02:01;20.25;;;14.90;;
65545;SDS011;52177;55.968;37.498;2023-07-09T00:02:31;20.85;;;15.07;;
65545;SDS011;52177;55.968;37.498;2023-07-09T00:03:02;19.48;;;14.20;;
65545;SDS011;52177;55.968;37.498;2023-07-09T00:03:32;19.73;;;14.18;;
65545;SDS011;52177;55.968;37.498;2023-07-09T00:04:02;17.38;;;14.05;;
65545;SDS011;52177;55.968;37.498;2023-07-09T00:04:33;20.50;;;14.15;;
65545;SDS011;52177;55.968;37.498;2023-07-09T00:05:04;17.50;;;14.18;;
65545;SDS011;52177;55.968;37.498;2023-07-09T00:05:34;19.30;;;14.27;;
65545;SDS011;52177;55.968;37.498;2023-07-09T00:06:07;18.30;;;14.07;;
65545;SDS011;52177;55.968;37.498;2023-07-09T00:06:38;17.80;;;13.95;;
65545;SDS011;52177;55.968;37.498;2023-07-09T00:07:53;18.00;;;14.27;;
65545;SDS011;52177;55.968;37.498;2023-07-09T00:08:27;17.23;;;14.32;;
65545;SDS011;52177;55.968;37.498;2023-07-09T00:08:59;17.17;;;13.70;;
65545;SDS011;52177;55.968;37.498;2023-07-09T00:09:29;18.83;;;13.38;;
65545;SDS011;52177;55.968;37.498;2023-07-09T00:10:00;18.92;;;13.88;;
65545;SDS011;52177;55.968;37.498;2023-07-09T00:10:30;17.65;;;13.75;;
65545;SDS011;52177;55.968;37.498;2023-07-09T00:11:01;19.77;;;13.70;;
65545;SDS011;52177;55.968;37.498;2023-07-09T00:11:31;18.25;;;13.43;;
65545;SDS011;52177;55.968;37.498;2023-07-09T00:12:01;19.15;;;13.95;;
65545;SDS011;52177;55.968;37.498;2023-07-09T00:12:32;16.90;;;13.25;;
65545;SDS011;52177;55.968;37.498;2023-07-09T00:13:02;16.77;;;13.10;;
65545;SDS011;52177;55.968;37.498;2023-07-09T00:13:33;19.65;;;13.18;;
65545;SDS011;52177;55.968;37.498;2023-07-09T00:14:04;18.15;;;13.50;;
65545;SDS011;52177;55.968;37.498;2023-07-09T00:14:35;21.02;;;13.25;;
65545;SDS011;52177;55.968;37.498;2023-07-09T00:15:06;17.63;;;13.23;;
65545;SDS011;52177;55.968;37.498;2023-07-09T00:15:39;19.67;;;13.43;;
65545;SDS011;52177;55.968;37.498;2023-07-09T00:16:16;15.98;;;12.63;;
65545;SDS011;52177;55.968;37.498;2023-07-09T00:16:51;18.10;;;13.23;;
65545;SDS011;52177;55.968;37.498;2023-07-09T00:17:31;19.52;;;13.35;;
65545;SDS011;52177;55.968;37.498;2023-07-09T00:18:07;18.42;;;12.65;;
65545;SDS011;52177;55.968;37.498;2023-07-09T00:18:39;13.63;;;11.50;;
65545;SDS011;52177;55.968;37.498;2023-07-09T00:19:14;15.25;;;12.18;;
65545;SDS011;52177;55.968;37.498;2023-07-09T00:19:49;17.95;;;12.30;;
65545;SDS011;52177;55.968;37.498;2023-07-09T00:20:19;17.92;;;13.13;;
65545;SDS011;52177;55.968;37.498;2023-07-09T00:20:50;14.48;;;11.70;;
65545;SDS011;52177;55.968;37.498;2023-07-09T00:21:20;14.55;;;12.23;;
65545;SDS011;52177;55.968;37.498;2023-07-09T00:21:51;16.27;;;12.32;;
65545;SDS011;52177;55.968;37.498;2023-07-09T00:22:23;17.00;;;11.55;;
65545;SDS011;52177;55.968;37.498;2023-07-09T00:22:53;16.98;;;12.52;;
65545;SDS011;52177;55.968;37.498;2023-07-09T00:23:23;15.13;;;11.95;;
65545;SDS011;52177;55.968;37.498;2023-07-09T00:23:54;18.77;;;12.77;;
65545;SDS011;52177;55.968;37.498;2023-07-09T00:24:24;16.77;;;11.98;;
65545;SDS011;52177;55.968;37.498;2023-07-09T00:24:54;15.50;;;12.10;;
65545;SDS011;52177;55.968;37.498;2023-07-09T00:25:28;16.88;;;12.68;;
65545;SDS011;52177;55.968;37.498;2023-07-09T00:25:58;14.40;;;11.55;;
65545;SDS011;52177;55.968;37.498;2023-07-09T00:26:29;16.38;;;11.80;;
65545;SDS011;52177;55.968;37.498;2023-07-09T00:27:00;15.88;;;11.40;;
65545;SDS011;52177;55.968;37.498;2023-07-09T00:27:30;17.50;;;11.70;;
65545;SDS011;52177;55.968;37.498;2023-07-09T00:28:01;15.38;;;12.40;;
65545;SDS011;52177;55.968;37.498;2023-07-09T00:28:32;13.40;;;12.05;;
65545;SDS011;52177;55.968;37.498;2023-07-09T00:29:02;15.57;;;12.02;;
65545;SDS011;52177;55.968;37.498;2023-07-09T00:29:33;14.55;;;11.13;;
65545;SDS011;52177;55.968;37.498;2023-07-09T00:30:03;16.33;;;11.52;;
65545;SDS011;52177;55.968;37.498;2023-07-09T00:30:34;19.38;;;11.27;;
65545;SDS011;52177;55.968;37.498;2023-07-09T00:31:04;13.38;;;11.95;;
65545;SDS011;52177;55.968;37.498;2023-07-09T00:31:35;16.80;;;11.88;;
65545;SDS011;52177;55.968;37.498;2023-07-09T00:32:16;16.20;;;11.13;;
65545;SDS011;52177;55.968;37.498;2023-07-09T00:32:50;16.27;;;11.75;;
65545;SDS011;52177;55.968;37.498;2023-07-09T00:33:22;15.68;;;10.60;;
65545;SDS011;52177;55.968;37.498;2023-07-09T00:33:58;17.13;;;11.52;;
65545;SDS011;52177;55.968;37.498;2023-07-09T00:34:30;15.18;;;11.80;;
65545;SDS011;52177;55.968;37.498;2023-07-09T00:35:00;14.40;;;11.40;;
65545;SDS011;52177;55.968;37.498;2023-07-09T00:35:34;17.83;;;12.40;;
65545;SDS011;52177;55.968;37.498;2023-07-09T00:36:10;14.95;;;12.05;;
65545;SDS011;52177;55.968;37.498;2023-07-09T00:36:44;14.18;;;11.52;;
65545;SDS011;52177;55.968;37.498;2023-07-09T00:37:15;17.65;;;11.77;;
65545;SDS011;52177;55.968;37.498;2023-07-09T00:37:49;19.63;;;12.63;;
65545;SDS011;52177;55.968;37.498;2023-07-09T00:38:21;17.38;;;12.73;;
65545;SDS011;52177;55.968;37.498;2023-07-09T00:38:53;16.90;;;12.88;;
65545;SDS011;52177;55.968;37.498;2023-07-09T00:39:23;15.80;;;12.05;;
65545;SDS011;52177;55.968;37.498;2023-07-09T00:39:54;18.00;;;12.00;;
65545;SDS011;52177;55.968;37.498;2023-07-09T00:40:24;17.08;;;12.60;;
65545;SDS011;52177;55.968;37.498;2023-07-09T00:41:01;15.60;;;12.15;;
65545;SDS011;52177;55.968;37.498;2023-07-09T00:41:34;17.40;;;12.52;;
65545;SDS011;52177;55.968;37.498;2023-07-09T00:42:11;14.32;;;11.73;;
65545;SDS011;52177;55.968;37.498;2023-07-09T00:42:49;18.05;;;11.95;;
65545;SDS011;52177;55.968;37.498;2023-07-09T00:43:21;16.10;;;12.07;;
65545;SDS011;52177;55.968;37.498;2023-07-09T00:43:52;16.05;;;11.18;;
65545;SDS011;52177;55.968;37.498;2023-07-09T00:44:30;14.57;;;11.50;;
65545;SDS011;52177;55.968;37.498;2023-07-09T00:45:02;15.55;;;11.80;;
65545;SDS011;52177;55.968;37.498;2023-07-09T00:46:07;16.17;;;11.50;;
65545;SDS011;52177;55.968;37.498;2023-07-09T00:47:34;15.65;;;12.10;;
65545;SDS011;52177;55.968;37.498;2023-07-09T00:48:15;20.63;;;11.75;;
65545;SDS011;52177;55.968;37.498;2023-07-09T00:48:47;20.48;;;11.82;;
65545;SDS011;52177;55.968;37.498;2023-07-09T00:50:09;19.23;;;11.95;;
65545;SDS011;52177;55.968;37.498;2023-07-09T00:50:59;20.15;;;11.35;;
65545;SDS011;52177;55.968;37.498;2023-07-09T00:51:29;14.70;;;12.02;;
65545;SDS011;52177;55.968;37.498;2023-07-09T00:52:01;16.52;;;11.65;;
65545;SDS011;52177;55.968;37.498;2023-07-09T00:52:49;13.50;;;11.50;;
65545;SDS011;52177;55.968;37.498;2023-07-09T00:53:25;12.85;;;10.57;;
65545;SDS011;52177;55.968;37.498;2023-07-09T00:54:03;15.43;;;11.65;;
65545;SDS011;52177;55.968;37.498;2023-07-09T00:54:44;13.82;;;10.23;;
65545;SDS011;52177;55.968;37.498;2023-07-09T00:55:17;15.27;;;11.35;;
65545;SDS011;52177;55.968;37.498;2023-07-09T00:55:54;16.98;;;11.95;;
65545;SDS011;52177;55.968;37.498;2023-07-09T00:56:33;18.83;;;11.52;;
65545;SDS011;52177;55.968;37.498;2023-07-09T00:57:11;14.05;;;11.32;;
65545;SDS011;52177;55.968;37.498;2023-07-09T00:57:47;13.82;;;10.90;;
65545;SDS011;52177;55.968;37.498;2023-07-09T00:58:26;15.50;;;11.45;;
65545;SDS011;52177;55.968;37.498;2023-07-09T00:58:58;13.27;;;11.40;;
65545;SDS011;52177;55.968;37.498;2023-07-09T00:59:34;13.57;;;10.90;;
65545;SDS011;52177;55.968;37.498;2023-07-09T01:00:06;15.88;;;11.25;;
65545;SDS011;52177;55.968;37.498;2023-07-09T01:00:46;15.60;;;11.00;;
65545;SDS011;52177;55.968;37.498;2023-07-09T01:01:25;13.93;;;10.43;;
65545;SDS011;52177;55.968;37.498;2023-07-09T01:01:57;16.80;;;11.55;;
65545;SDS011;52177;55.968;37.498;2023-07-09T01:02:30;15.43;;;11.30;;
65545;SDS011;52177;55.968;37.498;2023-07-09T01:03:00;19.48;;;11.50;;
65545;SDS011;52177;55.968;37.498;2023-07-09T01:03:36;17.23;;;11.13;;
65545;SDS011;52177;55.968;37.498;2023-07-09T01:04:10;14.38;;;11.05;;
65545;SDS011;52177;55.968;37.498;2023-07-09T01:04:41;13.73;;;11.45;;
65545;SDS011;52177;55.968;37.498;2023-07-09T01:05:12;14.68;;;10.50;;
65545;SDS011;52177;55.968;37.498;2023-07-09T01:05:46;16.35;;;10.77;;
65545;SDS011;52177;55.968;37.498;2023-07-09T01:06:25;17.25;;;10.70;;
65545;SDS011;52177;55.968;37.498;2023-07-09T01:07:01;14.38;;;10.38;;
65545;SDS011;52177;55.968;37.498;2023-07-09T01:07:32;16.90;;;10.75;;
65545;SDS011;52177;55.968;37.498;2023-07-09T01:08:02;16.25;;;10.05;;
65545;SDS011;52177;55.968;37.498;2023-07-09T01:08:34;17.63;;;10.32;;
65545;SDS011;52177;55.968;37.498;2023-07-09T01:09:06;16.23;;;10.73;;
65545;SDS011;52177;55.968;37.498;2023-07-09T01:09:37;16.02;;;10.85;;
65545;SDS011;52177;55.968;37.498;2023-07-09T01:10:11;16.23;;;9.63;;
65545;SDS011;52177;55.968;37.498;2023-07-09T01:10:43;13.52;;;10.15;;
65545;SDS011;52177;55.968;37.498;2023-07-09T01:11:15;13.85;;;10.23;;
65545;SDS011;52177;55.968;37.498;2023-07-09T01:11:51;14.15;;;10.00;;
65545;SDS011;52177;55.968;37.498;2023-07-09T01:12:26;14.57;;;10.68;;
65545;SDS011;52177;55.968;37.498;2023-07-09T01:12:56;12.88;;;9.90;;
65545;SDS011;52177;55.968;37.498;2023-07-09T01:13:30;18.75;;;10.40;;
65545;SDS011;52177;55.968;37.498;2023-07-09T01:14:02;14.05;;;9.85;;
65545;SDS011;52177;55.968;37.498;2023-07-09T01:14:36;12.18;;;10.15;;
65545;SDS011;52177;55.968;37.498;2023-07-09T01:15:08;15.88;;;10.63;;
65545;SDS011;52177;55.968;37.498;2023-07-09T01:15:41;14.68;;;10.05;;
65545;SDS011;52177;55.968;37.498;2023-07-09T01:16:12;15.02;;;10.95;;
65545;SDS011;52177;55.968;37.498;2023-07-09T01:16:49;15.93;;;9.65;;
65545;SDS011;52177;55.968;37.498;2023-07-09T01:17:27;16.63;;;10.30;;
65545;SDS011;52177;55.968;37.498;2023-07-09T01:17:58;14.00;;;10.45;;
65545;SDS011;52177;55.968;37.498;2023-07-09T01:18:29;16.02;;;11.20;;
65545;SDS011;52177;55.968;37.498;2023-07-09T01:19:01;15.20;;;10.90;;
65545;SDS011;52177;55.968;37.498;2023-07-09T01:19:36;13.68;;;10.25;;
65545;SDS011;52177;55.968;37.498;2023-07-09T01:20:16;17.20;;;9.85;;
65545;SDS011;52177;55.968;37.498;2023-07-09T01:20:51;13.45;;;10.18;;
65545;SDS011;52177;55.968;37.498;2023-07-09T01:21:31;15.68;;;10.88;;
65545;SDS011;52177;55.968;37.498;2023-07-09T01:22:02;20.45;;;10.85;;
65545;SDS011;52177;55.968;37.498;2023-07-09T01:22:33;14.13;;;10.63;;
65545;SDS011;52177;55.968;37.498;2023-07-09T01:23:06;15.48;;;10.00;;
65545;SDS011;52177;55.968;37.498;2023-07-09T01:23:37;13.48;;;10.63;;
65545;SDS011;52177;55.968;37.498;2023-07-09T01:24:45;11.32;;;9.82;;
65545;SDS011;52177;55.968;37.498;2023-07-09T01:25:19;13.32;;;10.07;;
65545;SDS011;52177;55.968;37.498;2023-07-09T01:25:51;12.52;;;9.98;;
65545;SDS011;52177;55.968;37.498;2023-07-09T01:26:25;11.88;;;9.93;;
65545;SDS011;52177;55.968;37.498;2023-07-09T01:26:57;11.88;;;9.73;;
65545;SDS011;52177;55.968;37.498;2023-07-09T01:27:30;20.42;;;10.25;;
65545;SDS011;52177;55.968;37.498;2023-07-09T01:28:03;15.80;;;9.55;;
65545;SDS011;52177;55.968;37.498;2023-07-09T01:28:34;13.60;;;9.68;;
65545;SDS011;52177;55.968;37.498;2023-07-09T01:29:04;15.15;;;9.65;;
65545;SDS011;52177;55.968;37.498;2023-07-09T01:29:34;17.42;;;9.80;;
65545;SDS011;52177;55.968;37.498;2023-07-09T01:30:08;11.43;;;9.60;;
65545;SDS011;52177;55.968;37.498;2023-07-09T01:30:44;12.80;;;9.32;;
65545;SDS011;52177;55.968;37.498;2023-07-09T01:31:15;13.20;;;9.43;;
65545;SDS011;52177;55.968;37.498;2023-07-09T01:31:45;13.50;;;9.20;;
65545;SDS011;52177;55.968;37.498;2023-07-09T01:32:16;16.42;;;9.98;;
65545;SDS011;52177;55.968;37.498;2023-07-09T01:32:49;11.63;;;9.27;;
65545;SDS011;52177;55.968;37.498;2023-07-09T01:33:21;14.30;;;9.90;;
65545;SDS011;52177;55.968;37.498;2023-07-09T01:33:53;12.27;;;8.95;;
65545;SDS011;52177;55.968;37.498;2023-07-09T01:34:23;14.55;;;9.52;;
65545;SDS011;52177;55.968;37.498;2023-07-09T01:34:57;11.10;;;8.70;;
65545;SDS011;52177;55.968;37.498;2023-07-09T01:35:29;11.77;;;8.57;;
65545;SDS011;52177;55.968;37.498;2023-07-09T01:36:02;15.65;;;9.30;;
65545;SDS011;52177;55.968;37.498;2023-07-09T01:36:33;11.38;;;9.32;;
65545;SDS011;52177;55.968;37.498;2023-07-09T01:37:03;10.30;;;9.10;;
65545;SDS011;52177;55.968;37.498;2023-07-09T01:37:35;10.52;;;8.48;;
65545;SDS011;52177;55.968;37.498;2023-07-09T01:38:07;13.63;;;9.38;;
65545;SDS011;52177;55.968;37.498;2023-07-09T01:38:38;10.80;;;8.63;;
65545;SDS011;52177;55.968;37.498;2023-07-09T01:39:09;11.73;;;9.02;;
65545;SDS011;52177;55.968;37.498;2023-07-09T01:39:39;12.10;;;9.10;;
65545;SDS011;52177;55.968;37.498;2023-07-09T01:40:11;10.57;;;9.07;;
65545;SDS011;52177;55.968;37.498;2023-07-09T01:40:43;13.02;;;10.13;;
65545;SDS011;52177;55.968;37.498;2023-07-09T01:41:16;11.15;;;9.85;;
65545;SDS011;52177;55.968;37.498;2023-07-09T01:41:47;13.43;;;9.38;;
65545;SDS011;52177;55.968;37.498;2023-07-09T01:42:17;9.98;;;8.88;;
65545;SDS011;52177;55.968;37.498;2023-07-09T01:42:51;10.75;;;9.43;;
65545;SDS011;52177;55.968;37.498;2023-07-09T01:43:22;14.55;;;10.10;;
65545;SDS011;52177;55.968;37.498;2023-07-09T01:43:54;12.35;;;8.93;;
65545;SDS011;52177;55.968;37.498;2023-07-09T01:44:25;12.88;;;9.30;;
65545;SDS011;52177;55.968;37.498;2023-07-09T01:44:59;9.80;;;8.80;;
65545;SDS011;52177;55.968;37.498;2023-07-09T01:45:31;20.27;;;9.32;;
65545;SDS011;52177;55.968;37.498;2023-07-09T01:46:03;11.27;;;8.75;;
65545;SDS011;52177;55.968;37.498;2023-07-09T01:46:33;10.38;;;8.93;;
65545;SDS011;52177;55.968;37.498;2023-07-09T01:47:05;9.48;;;8.57;;
65545;SDS011;52177;55.968;37.498;2023-07-09T01:47:35;11.43;;;8.90;;
65545;SDS011;52177;55.968;37.498;2023-07-09T01:48:07;11.05;;;8.90;;
65545;SDS011;52177;55.968;37.498;2023-07-09T01:48:45;10.45;;;8.63;;
65545;SDS011;52177;55.968;37.498;2023-07-09T01:49:15;8.93;;;8.02;;
65545;SDS011;52177;55.968;37.498;2023-07-09T01:49:46;13.43;;;8.75;;
65545;SDS011;52177;55.968;37.498;2023-07-09T01:50:17;11.30;;;8.73;;
65545;SDS011;52177;55.968;37.498;2023-07-09T01:50:48;12.35;;;8.18;;
65545;SDS011;52177;55.968;37.498;2023-07-09T01:51:19;10.32;;;8.25;;
65545;SDS011;52177;55.968;37.498;2023-07-09T01:51:49;11.02;;;8.38;;
65545;SDS011;52177;55.968;37.498;2023-07-09T01:52:20;13.85;;;8.23;;
65545;SDS011;52177;55.968;37.498;2023-07-09T01:52:52;9.93;;;8.23;;
65545;SDS011;52177;55.968;37.498;2023-07-09T01:53:24;11.20;;;8.75;;
65545;SDS011;52177;55.968;37.498;2023-07-09T01:53:56;11.35;;;8.35;;
65545;SDS011;52177;55.968;37.498;2023-07-09T01:54:29;10.63;;;8.57;;
65545;SDS011;52177;55.968;37.498;2023-07-09T01:55:01;12.05;;;8.80;;
65545;SDS011;52177;55.968;37.498;2023-07-09T01:55:33;10.25;;;8.55;;
65545;SDS011;52177;55.968;37.498;2023-07-09T01:56:03;9.40;;;8.45;;
65545;SDS011;52177;55.968;37.498;2023-07-09T01:56:34;11.35;;;8.50;;
65545;SDS011;52177;55.968;37.498;2023-07-09T01:57:13;11.80;;;8.40;;
65545;SDS011;52177;55.968;37.498;2023-07-09T01:57:45;11.27;;;8.77;;
65545;SDS011;52177;55.968;37.498;2023-07-09T01:58:16;10.20;;;8.07;;
65545;SDS011;52177;55.968;37.498;2023-07-09T01:58:47;10.52;;;8.13;;
65545;SDS011;52177;55.968;37.498;2023-07-09T01:59:18;9.40;;;7.95;;
65545;SDS011;52177;55.968;37.498;2023-07-09T01:59:51;10.82;;;8.18;;
65545;SDS011;52177;55.968;37.498;2023-07-09T02:00:24;10.15;;;8.32;;
65545;SDS011;52177;55.968;37.498;2023-07-09T02:00:54;12.05;;;8.27;;
65545;SDS011;52177;55.968;37.498;2023-07-09T02:01:24;11.32;;;8.38;;
65545;SDS011;52177;55.968;37.498;2023-07-09T02:01:55;11.13;;;8.38;;
65545;SDS011;52177;55.968;37.498;2023-07-09T02:02:27;11.85;;;7.97;;
65545;SDS011;52177;55.968;37.498;2023-07-09T02:02:58;13.85;;;8.93;;
65545;SDS011;52177;55.968;37.498;2023-07-09T02:03:30;10.60;;;8.23;;
65545;SDS011;52177;55.968;37.498;2023-07-09T02:04:00;10.27;;;8.88;;
65545;SDS011;52177;55.968;37.498;2023-07-09T02:04:30;9.50;;;7.90;;
65545;SDS011;52177;55.968;37.498;2023-07-09T02:05:01;11.05;;;7.82;;
65545;SDS011;52177;55.968;37.498;2023-07-09T02:05:32;13.35;;;8.20;;
65545;SDS011;52177;55.968;37.498;2023-07-09T02:06:03;14.15;;;8.73;;
65545;SDS011;52177;55.968;37.498;2023-07-09T02:06:39;9.82;;;8.32;;
65545;SDS011;52177;55.968;37.498;2023-07-09T02:07:09;9.23;;;7.80;;
65545;SDS011;52177;55.968;37.498;2023-07-09T02:07:39;10.27;;;8.85;;
65545;SDS011;52177;55.968;37.498;2023-07-09T02:08:10;14.27;;;9.00;;
65545;SDS011;52177;55.968;37.498;2023-07-09T02:08:40;11.57;;;8.38;;
65545;SDS011;52177;55.968;37.498;2023-07-09T02:09:11;9.13;;;8.23;;
65545;SDS011;52177;55.968;37.498;2023-07-09T02:09:41;13.20;;;8.68;;
65545;SDS011;52177;55.968;37.498;2023-07-09T02:10:12;9.90;;;9.00;;
65545;SDS011;52177;55.968;37.498;2023-07-09T02:10:44;12.15;;;9.00;;
65545;SDS011;52177;55.968;37.498;2023-07-09T02:11:18;14.98;;;8.90;;
65545;SDS011;52177;55.968;37.498;2023-07-09T02:11:48;15.13;;;8.98;;
65545;SDS011;52177;55.968;37.498;2023-07-09T02:12:18;11.60;;;8.23;;
65545;SDS011;52177;55.968;37.498;2023-07-09T02:12:49;12.63;;;7.82;;
65545;SDS011;52177;55.968;37.498;2023-07-09T02:13:20;11.00;;;8.57;;
65545;SDS011;52177;55.968;37.498;2023-07-09T02:13:50;11.27;;;8.88;;
65545;SDS011;52177;55.968;37.498;2023-07-09T02:14:20;12.68;;;8.63;;
65545;SDS011;52177;55.968;37.498;2023-07-09T02:14:51;12.80;;;8.85;;
65545;SDS011;52177;55.968;37.498;2023-07-09T02:15:21;10.68;;;8.25;;
65545;SDS011;52177;55.968;37.498;2023-07-09T02:15:51;9.23;;;8.10;;
65545;SDS011;52177;55.968;37.498;2023-07-09T02:16:22;10.13;;;7.72;;
65545;SDS011;52177;55.968;37.498;2023-07-09T02:16:52;11.63;;;8.88;;
65545;SDS011;52177;55.968;37.498;2023-07-09T02:17:22;11.05;;;8.35;;
65545;SDS011;52177;55.968;37.498;2023-07-09T02:17:53;8.88;;;7.80;;
65545;SDS011;52177;55.968;37.498;2023-07-09T02:18:23;11.60;;;8.25;;
65545;SDS011;52177;55.968;37.498;2023-07-09T02:18:53;11.20;;;8.52;;
65545;SDS011;52177;55.968;37.498;2023-07-09T02:19:24;11.00;;;8.23;;
65545;SDS011;52177;55.968;37.498;2023-07-09T02:19:54;11.23;;;8.35;;
65545;SDS011;52177;55.968;37.498;2023-07-09T02:20:24;13.18;;;7.93;;
65545;SDS011;52177;55.968;37.498;2023-07-09T02:20:56;11.40;;;7.95;;
65545;SDS011;52177;55.968;37.498;2023-07-09T02:21:26;11.25;;;8.50;;
65545;SDS011;52177;55.968;37.498;2023-07-09T02:21:59;12.43;;;8.07;;
65545;SDS011;52177;55.968;37.498;2023-07-09T02:22:30;9.95;;;8.15;;
65545;SDS011;52177;55.968;37.498;2023-07-09T02:23:01;11.88;;;8.70;;
65545;SDS011;52177;55.968;37.498;2023-07-09T02:23:32;10.52;;;7.70;;
65545;SDS011;52177;55.968;37.498;2023-07-09T02:24:02;10.00;;;7.75;;
65545;SDS011;52177;55.968;37.498;2023-07-09T02:24:34;11.60;;;8.40;;
65545;SDS011;52177;55.968;37.498;2023-07-09T02:25:04;12.70;;;8.38;;
65545;SDS011;52177;55.968;37.498;2023-07-09T02:25:35;10.70;;;8.48;;
65545;SDS011;52177;55.968;37.498;2023-07-09T02:26:06;10.45;;;8.07;;
65545;SDS011;52177;55.968;37.498;2023-07-09T02:26:36;12.75;;;8.60;;
65545;SDS011;52177;55.968;37.498;2023-07-09T02:27:07;11.07;;;8.52;;
65545;SDS011;52177;55.968;37.498;2023-07-09T02:27:40;13.65;;;8.43;;
65545;SDS011;52177;55.968;37.498;2023-07-09T02:28:10;12.75;;;8.90;;
65545;SDS011;52177;55.968;37.498;2023-07-09T02:28:41;9.82;;;8.60;;
65545;SDS011;52177;55.968;37.498;2023-07-09T02:29:11;16.13;;;9.07;;
65545;SDS011;52177;55.968;37.498;2023-07-09T02:29:41;14.02;;;8.45;;
65545;SDS011;52177;55.968;37.498;2023-07-09T02:30:12;13.55;;;9.07;;
65545;SDS011;52177;55.968;37.498;2023-07-09T02:30:42;10.48;;;8.80;;
65545;SDS011;52177;55.968;37.498;2023-07-09T02:31:12;10.13;;;8.65;;
65545;SDS011;52177;55.968;37.498;2023-07-09T02:31:44;13.02;;;8.80;;
65545;SDS011;52177;55.968;37.498;2023-07-09T02:32:19;12.77;;;8.57;;
65545;SDS011;52177;55.968;37.498;2023-07-09T02:32:52;12.18;;;8.45;;
65545;SDS011;52177;55.968;37.498;2023-07-09T02:33:24;12.73;;;8.90;;
65545;SDS011;52177;55.968;37.498;2023-07-09T02:33:54;13.77;;;8.85;;
65545;SDS011;52177;55.968;37.498;2023-07-09T02:34:25;18.13;;;8.77;;
65545;SDS011;52177;55.968;37.498;2023-07-09T02:34:56;13.02;;;8.77;;
65545;SDS011;52177;55.968;37.498;2023-07-09T02:35:26;11.57;;;8.32;;
65545;SDS011;52177;55.968;37.498;2023-07-09T02:35:57;12.75;;;8.95;;
65545;SDS011;52177;55.968;37.498;2023-07-09T02:36:27;14.48;;;8.60;;
65545;SDS011;52177;55.968;37.498;2023-07-09T02:36:58;10.98;;;8.57;;
65545;SDS011;52177;55.968;37.498;2023-07-09T02:37:29;11.98;;;9.30;;
65545;SDS011;52177;55.968;37.498;2023-07-09T02:37:59;13.43;;;9.02;;
65545;SDS011;52177;55.968;37.498;2023-07-09T02:38:29;11.95;;;8.70;;
65545;SDS011;52177;55.968;37.498;2023-07-09T02:39:00;10.77;;;8.82;;
65545;SDS011;52177;55.968;37.498;2023-07-09T02:39:30;12.73;;;9.02;;
65545;SDS011;52177;55.968;37.498;2023-07-09T02:40:00;10.02;;;8.90;;
65545;SDS011;52177;55.968;37.498;2023-07-09T02:40:31;12.82;;;9.52;;
65545;SDS011;52177;55.968;37.498;2023-07-09T02:41:03;13.00;;;8.70;;
65545;SDS011;52177;55.968;37.498;2023-07-09T02:41:34;11.25;;;8.88;;
65545;SDS011;52177;55.968;37.498;2023-07-09T02:42:04;10.88;;;9.35;;
65545;SDS011;52177;55.968;37.498;2023-07-09T02:42:35;10.00;;;8.70;;
65545;SDS011;52177;55.968;37.498;2023-07-09T02:43:05;17.20;;;8.60;;
65545;SDS011;52177;55.968;37.498;2023-07-09T02:43:36;11.82;;;9.13;;
65545;SDS011;52177;55.968;37.498;2023-07-09T02:44:06;11.23;;;8.93;;
65545;SDS011;52177;55.968;37.498;2023-07-09T02:44:37;12.52;;;9.48;;
65545;SDS011;52177;55.968;37.498;2023-07-09T02:45:08;13.85;;;9.35;;
65545;SDS011;52177;55.968;37.498;2023-07-09T02:45:39;12.45;;;9.05;;
65545;SDS011;52177;55.968;37.498;2023-07-09T02:46:09;11.60;;;9.35;;
65545;SDS011;52177;55.968;37.498;2023-07-09T02:46:40;11.75;;;9.07;;
65545;SDS011;52177;55.968;37.498;2023-07-09T02:47:10;11.50;;;9.23;;
65545;SDS011;52177;55.968;37.498;2023-07-09T02:47:41;13.63;;;8.82;;
65545;SDS011;52177;55.968;37.498;2023-07-09T02:48:12;13.68;;;10.10;;
65545;SDS011;52177;55.968;37.498;2023-07-09T02:48:42;11.68;;;9.23;;
65545;SDS011;52177;55.968;37.498;2023-07-09T02:49:13;11.98;;;8.88;;
65545;SDS011;52177;55.968;37.498;2023-07-09T02:49:44;11.55;;;9.98;;
65545;SDS011;52177;55.968;37.498;2023-07-09T02:50:14;10.50;;;9.48;;
65545;SDS011;52177;55.968;37.498;2023-07-09T02:50:45;11.60;;;9.57;;
65545;SDS011;52177;55.968;37.498;2023-07-09T02:51:15;11.50;;;9.90;;
65545;SDS011;52177;55.968;37.498;2023-07-09T02:51:45;11.50;;;9.95;;
65545;SDS011;52177;55.968;37.498;2023-07-09T02:52:16;11.73;;;10.07;;
65545;SDS011;52177;55.968;37.498;2023-07-09T02:52:46;11.05;;;9.70;;
65545;SDS011;52177;55.968;37.498;2023-07-09T02:53:16;12.18;;;9.65;;
65545;SDS011;52177;55.968;37.498;2023-07-09T02:53:47;12.25;;;10.52;;
65545;SDS011;52177;55.968;37.498;2023-07-09T02:54:18;11.77;;;10.27;;
65545;SDS011;52177;55.968;37.498;2023-07-09T02:54:48;13.38;;;10.40;;
65545;SDS011;52177;55.968;37.498;2023-07-09T02:55:18;16.27;;;10.55;;
65545;SDS011;52177;55.968;37.498;2023-07-09T02:55:49;10.68;;;9.70;;
65545;SDS011;52177;55.968;37.498;2023-07-09T02:56:19;14.88;;;10.50;;
65545;SDS011;52177;55.968;37.498;2023-07-09T02:56:49;12.20;;;9.45;;
65545;SDS011;52177;55.968;37.498;2023-07-09T02:57:20;12.75;;;9.55;;
65545;SDS011;52177;55.968;37.498;2023-07-09T02:57:50;13.27;;;9.20;;
65545;SDS011;52177;55.968;37.498;2023-07-09T02:58:20;13.57;;;10.40;;
65545;SDS011;52177;55.968;37.498;2023-07-09T02:58:51;13.32;;;10.35;;
65545;SDS011;52177;55.968;37.498;2023-07-09T02:59:21;12.70;;;9.75;;
65545;SDS011;52177;55.968;37.498;2023-07-09T02:59:52;13.88;;;10.63;;
65545;SDS011;52177;55.968;37.498;2023-07-09T03:00:22;12.85;;;10.43;;
65545;SDS011;52177;55.968;37.498;2023-07-09T03:00:52;14.85;;;10.25;;
65545;SDS011;52177;55.968;37.498;2023-07-09T03:01:23;11.45;;;10.25;;
65545;SDS011;52177;55.968;37.498;2023-07-09T03:01:57;14.73;;;11.00;;
65545;SDS011;52177;55.968;37.498;2023-07-09T03:02:27;16.52;;;11.82;;
65545;SDS011;52177;55.968;37.498;2023-07-09T03:02:57;12.50;;;10.32;;
65545;SDS011;52177;55.968;37.498;2023-07-09T03:03:28;14.23;;;11.27;;
65545;SDS011;52177;55.968;37.498;2023-07-09T03:03:58;12.68;;;11.00;;
65545;SDS011;52177;55.968;37.498;2023-07-09T03:04:29;10.80;;;9.73;;
65545;SDS011;52177;55.968;37.498;2023-07-09T03:05:01;12.57;;;10.63;;
65545;SDS011;52177;55.968;37.498;2023-07-09T03:05:31;15.70;;;10.57;;
65545;SDS011;52177;55.968;37.498;2023-07-09T03:06:03;12.48;;;10.75;;
65545;SDS011;52177;55.968;37.498;2023-07-09T03:06:34;12.23;;;10.45;;
65545;SDS011;52177;55.968;37.498;2023-07-09T03:07:06;12.73;;;10.70;;
65545;SDS011;52177;55.968;37.498;2023-07-09T03:07:37;11.13;;;10.02;;
65545;SDS011;52177;55.968;37.498;2023-07-09T03:08:07;12.82;;;10.98;;
65545;SDS011;52177;55.968;37.498;2023-07-09T03:08:37;15.85;;;11.38;;
65545;SDS011;52177;55.968;37.498;2023-07-09T03:09:08;13.63;;;11.60;;
65545;SDS011;52177;55.968;37.498;2023-07-09T03:09:39;11.63;;;10.52;;